Angelesalvarino — EASE — position and weather

sailwx.info

Track history (hours):
 
Tides and Currents Weather Stations Pressure Air Temp Water Temp Dewpoint Dewpoint Depression Visibility Wind Speed Wind Dir Waves Ship Positions

Angelesalvarino

Last reported at 2018-Feb-14 15:43 UTC. Time now 2018-Feb-18 03:37 UTC.
Position N 39°13' W 009°49'.

Length 46 m; draft 5.6 m.

MMSI: 225431000.

Date/timePositionNaut miles runAvg speedWind from/ knotsBaromVisibWave heightAir tempDewpointWater temp
2018-Feb-14 15:43N 39°13' W 009°49'410.5
2018-Feb-14 15:22N 39°10' W 009°49'410.2
2018-Feb-14 15:01N 39°06' W 009°50'510.2
2018-Feb-14 14:31N 39°01' W 009°49'510.4
2018-Feb-14 14:00N 38°56' W 009°50'510.4
2018-Feb-14 13:30N 38°50' W 009°50'510.6
2018-Feb-14 13:00N 38°45' W 009°50'510.3
2018-Feb-14 12:30N 38°40' W 009°49'510.1
2018-Feb-14 11:59N 38°35' W 009°47'5 9.9
2018-Feb-14 11:29N 38°30' W 009°46'  
2018-Feb-10 07:50N 35°59' W 005°31'3 9.1
2018-Feb-10 07:30N 35°60' W 005°27'4 8.5
2018-Feb-10 07:00N 36°01' W 005°22'67 1.4
2018-Feb-08 06:00N 36°17' W 004°02'611.3
2018-Feb-08 05:30N 36°15' W 004°08'5311.1
2018-Feb-08 00:45N 36°02' W 005°12'312.4
2018-Feb-08 00:30N 36°01' W 005°15'712.4
2018-Feb-07 23:56N 35°59' W 005°24'613.6
2018-Feb-07 23:30N 35°57' W 005°30'283 9.0
2018-Feb-06 16:09N 38°59' W 010°04'  
Track history (hours):
 
Tides and Currents Weather Stations Pressure Air Temp Water Temp Dewpoint Dewpoint Depression Visibility Wind Speed Wind Dir Waves Ship Positions

Angelesalvarino

Last reported at 2018-Feb-14 15:43 UTC. Time now 2018-Feb-18 03:37 UTC.
Position N 39°13' W 009°49'.

Length 46 m; draft 5.6 m.

MMSI: 225431000.

Date/timePositionNaut miles runAvg speedWind from/ knotsBaromVisibWave heightAir tempDewpointWater temp
2018-Feb-14 15:43N 39°13' W 009°49'410.5
2018-Feb-14 15:22N 39°10' W 009°49'410.2
2018-Feb-14 15:01N 39°06' W 009°50'510.2
2018-Feb-14 14:31N 39°01' W 009°49'510.4
2018-Feb-14 14:00N 38°56' W 009°50'510.4
2018-Feb-14 13:30N 38°50' W 009°50'510.6
2018-Feb-14 13:00N 38°45' W 009°50'510.3
2018-Feb-14 12:30N 38°40' W 009°49'510.1
2018-Feb-14 11:59N 38°35' W 009°47'5 9.9
2018-Feb-14 11:29N 38°30' W 009°46'  
2018-Feb-10 07:50N 35°59' W 005°31'3 9.1
2018-Feb-10 07:30N 35°60' W 005°27'4 8.5
2018-Feb-10 07:00N 36°01' W 005°22'67 1.4
2018-Feb-08 06:00N 36°17' W 004°02'611.3
2018-Feb-08 05:30N 36°15' W 004°08'5311.1
2018-Feb-08 00:45N 36°02' W 005°12'312.4
2018-Feb-08 00:30N 36°01' W 005°15'712.4
2018-Feb-07 23:56N 35°59' W 005°24'613.6
2018-Feb-07 23:30N 35°57' W 005°30'283 9.0
2018-Feb-06 16:09N 38°59' W 010°04'  

Dump ship's entire track history